createdAt,value
2023-01-17T00:01:04.907Z,76.78
2023-01-17T00:04:28.307Z,76.49
2023-01-17T00:07:53.367Z,76.69
2023-01-17T00:10:59.787Z,77.13
2023-01-17T00:14:07.800Z,77.11
2023-01-17T00:17:13.030Z,77.33
2023-01-17T00:20:34.855Z,77.34
2023-01-17T00:23:58.717Z,77.39
2023-01-17T00:27:21.405Z,77.26
2023-01-17T00:30:26.951Z,77.43
2023-01-17T00:33:31.962Z,77.66
2023-01-17T00:36:37.111Z,77.71
2023-01-17T00:39:42.178Z,77.62
2023-01-17T00:42:46.742Z,77.64
2023-01-17T00:46:10.199Z,77.48
2023-01-17T00:49:33.350Z,77.62
2023-01-17T00:52:56.245Z,77.81
2023-01-17T00:56:20.064Z,77.85
2023-01-17T00:59:43.221Z,77.93
2023-01-17T01:03:06.657Z,78.05
2023-01-17T01:06:29.901Z,78.14
2023-01-17T01:09:53.455Z,78.39
2023-01-17T01:13:16.764Z,78.42
2023-01-17T01:16:40.455Z,78.43
2023-01-17T01:20:03.737Z,78.66
2023-01-17T01:23:26.907Z,78.42
2023-01-17T01:26:49.758Z,78.33
2023-01-17T01:30:13.586Z,78.47
2023-01-17T01:33:27.915Z,78.67
2023-01-17T01:36:33.047Z,79.15
2023-01-17T01:39:38.106Z,79.55
2023-01-17T01:42:43.917Z,79.75
2023-01-17T01:45:44.317Z,79.98
2023-01-17T01:49:08.865Z,80.14
2023-01-17T01:52:17.742Z,79.83
2023-01-17T01:55:35.343Z,79.56
2023-01-17T01:58:43.366Z,79.37
2023-01-17T02:01:49.197Z,79.40
2023-01-17T02:04:55.668Z,79.56
2023-01-17T02:08:19.383Z,79.58
2023-01-17T02:11:26.212Z,79.51
2023-01-17T02:14:35.306Z,79.35
2023-01-17T02:18:04.366Z,79.03
2023-01-17T02:21:41.397Z,79.06
2023-01-17T02:25:16.542Z,79.24
2023-01-17T02:29:03.008Z,79.19
2023-01-17T02:32:25.916Z,79.33
2023-01-17T02:35:41.420Z,79.71
2023-01-17T02:39:19.412Z,79.72
2023-01-17T02:42:31.408Z,79.65
2023-01-17T02:45:36.509Z,79.90
2023-01-17T02:48:43.705Z,80.35
2023-01-17T02:52:00.138Z,80.43
2023-01-17T02:55:26.454Z,80.17
2023-01-17T02:58:51.597Z,79.79
2023-01-17T03:02:13.688Z,79.59
2023-01-17T03:05:42.065Z,79.98
2023-01-17T03:08:47.082Z,80.04
2023-01-17T03:11:53.198Z,80.14
2023-01-17T03:14:59.046Z,79.93
2023-01-17T03:18:07.071Z,79.71
2023-01-17T03:21:12.255Z,80.46
2023-01-17T03:24:17.539Z,81.05
2023-01-17T03:27:22.904Z,80.83
2023-01-17T03:30:30.218Z,80.83
2023-01-17T03:33:35.298Z,81.15
2023-01-17T03:36:39.909Z,81.40
2023-01-17T03:39:45.372Z,81.44
2023-01-17T03:42:52.838Z,80.99
2023-01-17T03:46:00.789Z,80.90
2023-01-17T03:49:06.480Z,80.88
2023-01-17T03:52:12.297Z,81.26
2023-01-17T03:55:11.163Z,81.44
2023-01-17T03:58:17.215Z,81.28
2023-01-17T04:01:23.563Z,81.36
2023-01-17T04:04:29.190Z,81.28
2023-01-17T04:07:34.346Z,81.72
2023-01-17T04:10:40.166Z,81.49
2023-01-17T04:13:46.340Z,80.60
2023-01-17T04:16:52.604Z,80.34
2023-01-17T04:19:59.045Z,81.01
2023-01-17T04:23:03.872Z,81.55
2023-01-17T04:26:10.460Z,81.79
2023-01-17T04:29:16.163Z,81.84
2023-01-17T04:32:14.501Z,82.10
2023-01-17T04:35:07.492Z,82.53
2023-01-17T04:38:13.139Z,82.61
2023-01-17T04:41:18.584Z,82.70
2023-01-17T04:44:24.029Z,82.71
2023-01-17T04:47:28.979Z,83.08
2023-01-17T04:50:33.715Z,83.25
2023-01-17T04:53:38.788Z,83.37
2023-01-17T04:56:43.499Z,83.52
2023-01-17T04:59:41.422Z,83.46
2023-01-17T05:02:46.310Z,82.58
2023-01-17T05:05:52.258Z,81.64
2023-01-17T05:08:59.948Z,81.96
2023-01-17T05:12:04.883Z,81.49
2023-01-17T05:15:10.525Z,81.45
2023-01-17T05:18:17.056Z,82.93
2023-01-17T05:21:23.806Z,83.28
2023-01-17T05:24:29.185Z,82.42
2023-01-17T05:27:34.637Z,82.32
2023-01-17T05:30:39.951Z,82.02
2023-01-17T05:33:46.829Z,82.42
2023-01-17T05:36:51.219Z,82.44
2023-01-17T05:39:57.023Z,82.78
2023-01-17T05:43:04.280Z,83.27
2023-01-17T05:46:09.924Z,83.47
2023-01-17T05:49:16.545Z,83.02
2023-01-17T05:52:22.388Z,82.73
2023-01-17T05:55:28.381Z,82.51
2023-01-17T05:58:34.911Z,82.75
2023-01-17T06:01:40.528Z,82.43
2023-01-17T06:04:46.375Z,82.36
2023-01-17T06:07:53.164Z,82.80
2023-01-17T06:11:00.440Z,82.74
2023-01-17T06:14:06.092Z,83.01
2023-01-17T06:17:12.407Z,82.72
2023-01-17T06:20:18.836Z,82.67
2023-01-17T06:23:26.020Z,82.92
2023-01-17T06:26:32.529Z,83.03
2023-01-17T06:29:37.777Z,83.32
2023-01-17T06:32:43.102Z,83.03
2023-01-17T06:35:50.104Z,84.08
2023-01-17T06:38:56.487Z,83.73
2023-01-17T06:42:03.236Z,83.24
2023-01-17T06:45:09.279Z,83.14
2023-01-17T06:48:15.924Z,83.84
2023-01-17T06:51:21.047Z,84.34
2023-01-17T06:54:28.520Z,84.11
2023-01-17T06:57:34.248Z,84.48
2023-01-17T07:00:42.781Z,84.29
2023-01-17T07:03:47.486Z,84.00
2023-01-17T07:06:47.265Z,84.06
2023-01-17T07:09:40.490Z,83.75
2023-01-17T07:12:46.654Z,83.88
2023-01-17T07:15:52.478Z,83.79
2023-01-17T07:19:00.181Z,84.14
2023-01-17T07:22:08.670Z,84.64
2023-01-17T07:25:13.825Z,84.72
2023-01-17T07:28:18.474Z,85.02
2023-01-17T07:31:24.116Z,85.11
2023-01-17T07:34:30.237Z,85.71
2023-01-17T07:37:36.818Z,86.06
2023-01-17T07:40:47.006Z,85.97
2023-01-17T07:43:51.547Z,85.85
2023-01-17T07:46:57.479Z,85.71
2023-01-17T07:50:07.074Z,85.63
2023-01-17T07:53:13.133Z,85.87
2023-01-17T07:56:20.525Z,85.73
2023-01-17T07:59:27.409Z,85.71
2023-01-17T08:02:35.817Z,85.50
2023-01-17T08:05:45.110Z,85.51
2023-01-17T08:08:51.471Z,85.56
2023-01-17T08:11:59.864Z,86.19
2023-01-17T08:15:05.532Z,86.50
2023-01-17T08:18:12.327Z,86.84
2023-01-17T08:21:17.393Z,86.77
2023-01-17T08:24:28.193Z,86.44
2023-01-17T08:27:37.237Z,86.51
2023-01-17T08:30:44.271Z,86.34
2023-01-17T08:33:49.528Z,86.31
2023-01-17T08:36:54.584Z,86.49
2023-01-17T08:40:01.178Z,86.44
2023-01-17T08:43:11.436Z,86.27
2023-01-17T08:46:16.969Z,86.06
2023-01-17T08:49:23.624Z,86.21
2023-01-17T08:52:34.238Z,85.95
2023-01-17T08:55:40.694Z,86.29
2023-01-17T08:58:48.152Z,86.59
2023-01-17T09:01:54.076Z,87.61
2023-01-17T09:04:58.081Z,88.21
2023-01-17T09:08:04.281Z,88.53
2023-01-17T09:11:10.069Z,88.79
2023-01-17T09:14:16.215Z,89.27
2023-01-17T09:17:23.588Z,89.59
2023-01-17T09:20:30.648Z,89.58
2023-01-17T09:23:41.023Z,90.07
2023-01-17T09:26:46.950Z,90.07
2023-01-17T09:29:52.857Z,89.97
2023-01-17T09:33:01.063Z,90.10
2023-01-17T09:36:06.695Z,89.89
2023-01-17T09:39:15.350Z,90.22
2023-01-17T09:42:38.369Z,90.14
2023-01-17T09:45:46.484Z,90.21
2023-01-17T09:48:52.817Z,90.21
2023-01-17T09:51:58.630Z,90.22
2023-01-17T09:55:07.887Z,90.50
2023-01-17T09:58:22.639Z,91.35
2023-01-17T10:01:40.129Z,91.27
2023-01-17T10:05:07.030Z,91.83
2023-01-17T10:08:32.615Z,92.26
2023-01-17T10:11:54.640Z,92.79
2023-01-17T10:15:25.890Z,92.69
2023-01-17T10:18:58.512Z,92.31
2023-01-17T10:22:38.541Z,92.21
2023-01-17T10:25:57.135Z,92.33
2023-01-17T10:29:03.678Z,92.50
2023-01-17T10:32:14.162Z,92.33
2023-01-17T10:35:24.491Z,92.05
2023-01-17T10:38:29.260Z,92.95
2023-01-17T10:41:50.463Z,93.34
2023-01-17T10:45:00.925Z,93.46
2023-01-17T10:48:16.354Z,93.44
2023-01-17T10:51:56.303Z,93.55
2023-01-17T10:55:24.728Z,93.56
2023-01-17T10:58:32.974Z,93.71
2023-01-17T11:01:39.793Z,93.77
2023-01-17T11:04:56.141Z,93.71
2023-01-17T11:08:25.315Z,93.41
2023-01-17T11:11:31.439Z,93.33
2023-01-17T11:14:38.468Z,93.17
2023-01-17T11:17:45.296Z,93.43
2023-01-17T11:20:53.551Z,93.67
2023-01-17T11:24:03.971Z,93.39
2023-01-17T11:27:08.865Z,92.88
2023-01-17T11:30:23.045Z,93.33
2023-01-17T11:33:42.138Z,93.57
2023-01-17T11:36:48.440Z,93.32
2023-01-17T11:40:00.226Z,92.90
2023-01-17T11:43:22.639Z,92.13
2023-01-17T11:46:32.003Z,91.19
2023-01-17T11:49:40.873Z,90.93
2023-01-17T11:52:48.363Z,91.10
2023-01-17T11:55:57.912Z,91.09
2023-01-17T11:59:03.513Z,91.25
2023-01-17T12:02:38.910Z,91.18
2023-01-17T12:06:07.675Z,91.23
2023-01-17T12:09:29.076Z,91.50
2023-01-17T12:13:11.209Z,91.40
2023-01-17T12:16:42.830Z,91.52
2023-01-17T12:20:18.426Z,91.15
2023-01-17T12:24:03.156Z,91.20
2023-01-17T12:27:36.978Z,91.67
2023-01-17T12:31:09.808Z,91.47
2023-01-17T12:34:45.497Z,91.80
2023-01-17T12:38:05.007Z,92.51
2023-01-17T12:41:19.964Z,92.81
2023-01-17T12:44:25.418Z,93.14
2023-01-17T12:47:30.743Z,93.38
2023-01-17T12:50:49.117Z,93.53
2023-01-17T12:54:25.991Z,93.58
2023-01-17T12:57:42.892Z,93.88
2023-01-17T13:00:51.297Z,93.95
2023-01-17T13:04:21.099Z,93.97
2023-01-17T13:07:34.090Z,94.03
2023-01-17T13:10:50.750Z,94.32
2023-01-17T13:13:59.079Z,94.67
2023-01-17T13:17:14.907Z,94.68
2023-01-17T13:20:43.451Z,95.43
2023-01-17T13:24:13.313Z,95.59
2023-01-17T13:27:33.741Z,95.33
2023-01-17T13:31:22.795Z,95.61
2023-01-17T13:35:03.734Z,95.96
2023-01-17T13:38:49.151Z,95.66
2023-01-17T13:42:04.315Z,95.88
2023-01-17T13:45:11.126Z,96.16
2023-01-17T13:48:29.899Z,96.33
2023-01-17T13:51:35.314Z,95.95
2023-01-17T13:54:47.931Z,96.51
2023-01-17T13:57:55.795Z,96.96
2023-01-17T14:01:03.449Z,97.14
2023-01-17T14:04:14.336Z,97.43
2023-01-17T14:07:24.586Z,97.87
2023-01-17T14:10:59.260Z,98.02
2023-01-17T14:14:04.682Z,97.72
2023-01-17T14:17:10.353Z,97.66
2023-01-17T14:20:27.893Z,98.08
2023-01-17T14:23:42.919Z,98.50
2023-01-17T14:26:58.434Z,98.72
2023-01-17T14:30:14.794Z,99.16
2023-01-17T14:33:25.864Z,99.79
2023-01-17T14:36:46.791Z,100.00
2023-01-17T14:40:00.212Z,100.00
2023-01-17T14:43:30.376Z,99.98
2023-01-17T14:46:45.740Z,99.59
2023-01-17T14:49:52.024Z,99.59
2023-01-17T14:52:57.207Z,99.32
2023-01-17T14:56:09.872Z,99.18
2023-01-17T14:59:24.783Z,99.69
2023-01-17T15:02:31.246Z,99.51
2023-01-17T15:05:38.612Z,99.65
2023-01-17T15:08:48.903Z,99.58
2023-01-17T15:11:54.744Z,99.68
2023-01-17T15:15:02.615Z,99.42
2023-01-17T15:18:22.093Z,98.62
2023-01-17T15:21:31.658Z,98.36
2023-01-17T15:24:44.230Z,98.14
2023-01-17T15:27:49.684Z,98.21
2023-01-17T15:31:41.097Z,98.12
2023-01-17T15:34:51.947Z,97.91
2023-01-17T15:37:57.791Z,97.40
2023-01-17T15:41:03.833Z,96.17
2023-01-17T15:44:09.875Z,95.84
2023-01-17T15:47:15.267Z,96.13
2023-01-17T15:50:44.817Z,95.90
2023-01-17T15:53:52.614Z,96.72
2023-01-17T15:56:59.356Z,97.23
2023-01-17T16:00:14.575Z,97.73
2023-01-17T16:03:39.267Z,97.81
2023-01-17T16:06:55.326Z,98.20
2023-01-17T16:10:00.561Z,98.89
2023-01-17T16:13:08.884Z,98.86
2023-01-17T16:16:36.927Z,98.70
2023-01-17T16:19:42.553Z,99.15
2023-01-17T16:22:48.608Z,99.27
2023-01-17T16:25:54.878Z,98.46
2023-01-17T16:28:59.618Z,98.52
2023-01-17T16:32:05.847Z,97.05
2023-01-17T16:35:11.660Z,97.49
2023-01-17T16:38:24.415Z,98.60
2023-01-17T16:41:31.498Z,98.32
2023-01-17T16:44:37.197Z,98.13
2023-01-17T16:47:43.478Z,98.41
2023-01-17T16:50:48.623Z,98.60
2023-01-17T16:53:54.198Z,98.30
2023-01-17T16:56:59.813Z,97.91
2023-01-17T17:00:04.915Z,98.12
2023-01-17T17:03:10.841Z,97.34
2023-01-17T17:06:16.429Z,96.73
2023-01-17T17:09:23.007Z,96.36
2023-01-17T17:12:28.592Z,96.46
2023-01-17T17:15:33.928Z,97.31
2023-01-17T17:18:40.952Z,98.07
2023-01-17T17:21:45.859Z,99.09
2023-01-17T17:24:52.125Z,100.00
2023-01-17T17:27:58.636Z,99.70
2023-01-17T17:31:04.440Z,100.00
2023-01-17T17:34:14.538Z,100.00
2023-01-17T17:37:19.453Z,100.00
2023-01-17T17:40:26.615Z,100.00
2023-01-17T17:43:32.469Z,100.00
2023-01-17T17:46:40.296Z,100.00
2023-01-17T17:49:45.763Z,100.00
2023-01-17T17:52:51.108Z,100.00
2023-01-17T17:55:58.677Z,100.00
2023-01-17T17:59:03.982Z,100.00
2023-01-17T18:02:10.477Z,100.00
2023-01-17T18:05:16.300Z,99.98
2023-01-17T18:08:17.833Z,99.91
2023-01-17T18:11:11.540Z,100.00
2023-01-17T18:14:06.238Z,100.00
2023-01-17T18:16:59.764Z,100.00
2023-01-17T18:20:00.117Z,100.00
2023-01-17T18:22:59.151Z,100.00
2023-01-17T18:26:05.150Z,100.00
2023-01-17T18:29:09.998Z,100.00
2023-01-17T18:32:16.509Z,100.00
2023-01-17T18:35:22.294Z,99.98
2023-01-17T18:38:28.472Z,99.72
2023-01-17T18:41:43.470Z,99.72
2023-01-17T18:44:49.565Z,99.48
2023-01-17T18:47:56.369Z,100.00
2023-01-17T18:51:14.874Z,100.00
2023-01-17T18:54:21.970Z,99.74
2023-01-17T18:57:28.596Z,99.90
2023-01-17T19:00:37.881Z,99.35
2023-01-17T19:03:43.495Z,99.87
2023-01-17T19:06:52.692Z,100.00
2023-01-17T19:09:58.484Z,100.00
2023-01-17T19:13:04.252Z,100.00
2023-01-17T19:16:11.803Z,100.00
2023-01-17T19:19:19.669Z,100.00
2023-01-17T19:22:25.157Z,100.00
2023-01-17T19:25:33.056Z,100.00
2023-01-17T19:28:37.933Z,100.00
2023-01-17T19:31:46.202Z,100.00
2023-01-17T19:34:51.405Z,100.00
2023-01-17T19:38:04.109Z,100.00
2023-01-17T19:41:09.947Z,100.00
2023-01-17T19:44:18.404Z,100.00
2023-01-17T19:47:23.006Z,100.00
2023-01-17T19:50:28.960Z,100.00
2023-01-17T19:53:33.577Z,100.00
2023-01-17T19:56:33.991Z,100.00
2023-01-17T19:59:40.693Z,100.00
2023-01-17T20:02:46.575Z,100.00
2023-01-17T20:05:54.182Z,100.00
2023-01-17T20:09:00.332Z,100.00
2023-01-17T20:12:06.277Z,100.00
2023-01-17T20:15:12.750Z,100.00
2023-01-17T20:18:19.882Z,100.00
2023-01-17T20:21:38.520Z,100.00
2023-01-17T20:24:44.036Z,100.00
2023-01-17T20:27:49.295Z,100.00
2023-01-17T20:30:54.535Z,100.00
2023-01-17T20:34:01.159Z,100.00
2023-01-17T20:37:09.421Z,100.00
2023-01-17T20:40:15.115Z,100.00
2023-01-17T20:43:21.374Z,99.74
2023-01-17T20:46:26.326Z,100.00
2023-01-17T20:49:34.098Z,99.19
2023-01-17T20:52:38.690Z,99.53
2023-01-17T20:55:37.293Z,99.81
2023-01-17T20:58:22.984Z,100.00
2023-01-17T21:01:17.855Z,99.44
2023-01-17T21:04:10.603Z,99.10
2023-01-17T21:07:16.987Z,99.46
2023-01-17T21:10:23.235Z,99.90
2023-01-17T21:13:29.516Z,100.00
2023-01-17T21:16:36.660Z,99.54
2023-01-17T21:19:41.668Z,99.23
2023-01-17T21:22:47.678Z,98.83
2023-01-17T21:25:55.519Z,98.11
2023-01-17T21:29:01.075Z,97.96
2023-01-17T21:32:06.911Z,98.84
2023-01-17T21:35:17.358Z,99.04
2023-01-17T21:38:22.719Z,98.80
2023-01-17T21:41:28.745Z,100.00
2023-01-17T21:44:36.788Z,98.85
2023-01-17T21:47:42.787Z,98.19
2023-01-17T21:50:47.536Z,97.99
2023-01-17T21:53:54.303Z,99.02
2023-01-17T21:57:17.880Z,98.99
2023-01-17T22:00:26.205Z,99.00
2023-01-17T22:03:31.975Z,99.40
2023-01-17T22:06:47.555Z,99.99
2023-01-17T22:09:54.365Z,100.00
2023-01-17T22:13:00.993Z,99.26
2023-01-17T22:16:15.459Z,98.53
2023-01-17T22:19:20.779Z,98.25
2023-01-17T22:22:26.373Z,98.92
2023-01-17T22:25:32.923Z,98.84
2023-01-17T22:28:38.378Z,98.71
2023-01-17T22:31:43.819Z,97.84
2023-01-17T22:34:49.871Z,99.39
2023-01-17T22:37:55.609Z,100.00
2023-01-17T22:41:01.940Z,100.00
2023-01-17T22:44:13.583Z,100.00
2023-01-17T22:47:18.662Z,100.00
2023-01-17T22:50:24.614Z,99.76
2023-01-17T22:53:29.769Z,98.50
2023-01-17T22:56:40.957Z,99.01
2023-01-17T22:59:47.028Z,99.15
2023-01-17T23:02:52.603Z,99.02
2023-01-17T23:05:57.682Z,98.34
2023-01-17T23:09:06.729Z,99.24
2023-01-17T23:12:14.461Z,99.59
2023-01-17T23:15:38.028Z,99.92
2023-01-17T23:19:01.747Z,99.09
2023-01-17T23:22:28.488Z,99.61
2023-01-17T23:25:33.907Z,99.72
2023-01-17T23:28:39.683Z,99.73
2023-01-17T23:31:44.713Z,99.64
2023-01-17T23:34:50.390Z,100.00
2023-01-17T23:38:13.667Z,98.90
2023-01-17T23:41:39.518Z,99.83
2023-01-17T23:44:44.496Z,100.00
2023-01-17T23:47:50.142Z,99.62
2023-01-17T23:51:35.598Z,99.56
2023-01-17T23:54:41.485Z,99.22
2023-01-17T23:57:46.811Z,99.47
